Time;durP1;ratioP1;P1;durP2;ratioP2;P2;SDS_P1;SDS_P2;PMS_P1;PMS_P2;Temp;Humidity;BMP_temperature;BMP_pressure;BME280_temperature;BME280_humidity;BME280_pressure;Samples;Min_cycle;Max_cycle;Signal;HPM_P1;HPM_P2
2021/08/20 00:00:11;;;;;;;3.60;2.70;;;24.10;46.90;;;;;;5113955;28;20050;-73
2021/08/20 00:02:37;;;;;;;4.85;2.60;;;24.10;47.00;;;;;;5113693;28;20107;-74
2021/08/20 00:05:04;;;;;;;4.60;2.55;;;24.10;47.70;;;;;;5114130;28;20448;-73
2021/08/20 00:07:30;;;;;;;4.10;2.75;;;24.10;47.70;;;;;;5114191;28;20027;-73
2021/08/20 00:09:59;;;;;;;4.53;2.58;;;24.10;47.90;;;;;;5114116;28;20365;-74
2021/08/20 00:12:26;;;;;;;3.97;2.47;;;24.10;48.10;;;;;;5095657;28;20425;-72
2021/08/20 00:14:55;;;;;;;4.93;2.55;;;24.00;47.90;;;;;;5113788;28;20170;-73
2021/08/20 00:17:21;;;;;;;4.05;2.42;;;24.10;47.90;;;;;;5113438;28;20036;-73
2021/08/20 00:19:47;;;;;;;4.68;2.70;;;24.00;48.20;;;;;;5113982;28;20048;-74
2021/08/20 00:22:13;;;;;;;5.28;2.67;;;24.10;48.40;;;;;;5077213;28;20551;-70
2021/08/20 00:24:38;;;;;;;3.55;2.35;;;24.10;48.20;;;;;;5075543;28;20029;-74
2021/08/20 00:27:05;;;;;;;6.35;3.00;;;24.00;47.70;;;;;;5092447;28;20038;-74
2021/08/20 00:29:30;;;;;;;4.28;2.92;;;24.00;46.90;;;;;;5093222;28;20029;-72
2021/08/20 00:31:56;;;;;;;4.85;2.95;;;24.10;46.60;;;;;;5093222;28;20074;-69
2021/08/20 00:34:22;;;;;;;4.13;2.83;;;24.10;46.20;;;;;;5093376;28;20491;-70
2021/08/20 00:36:48;;;;;;;6.63;2.78;;;24.10;46.20;;;;;;5093196;28;20024;-74
2021/08/20 00:39:15;;;;;;;3.35;2.38;;;24.00;47.10;;;;;;5093076;28;20047;-73
2021/08/20 00:41:41;;;;;;;3.75;2.67;;;24.10;46.90;;;;;;5074965;28;20036;-71
2021/08/20 00:44:07;;;;;;;4.95;2.92;;;24.00;46.90;;;;;;5093046;28;20035;-73
2021/08/20 00:46:33;;;;;;;3.42;2.70;;;23.90;47.00;;;;;;5093128;28;20032;-73
2021/08/20 00:48:59;;;;;;;5.72;2.83;;;23.90;47.40;;;;;;5093147;28;20032;-70
2021/08/20 00:51:33;;;;;;;4.95;2.67;;;23.90;48.30;;;;;;5092962;28;20033;-72
2021/08/20 00:53:59;;;;;;;7.13;2.78;;;23.80;48.40;;;;;;5093069;28;20039;-74
2021/08/20 00:56:25;;;;;;;3.35;2.60;;;23.80;48.20;;;;;;5093396;28;20032;-73
2021/08/20 00:58:51;;;;;;;3.38;2.05;;;23.80;49.10;;;;;;5092377;28;20388;-73
2021/08/20 01:01:20;;;;;;;4.90;2.78;;;23.70;48.90;;;;;;5092767;28;20056;-73
2021/08/20 01:03:46;;;;;;;5.40;3.45;;;23.70;49.60;;;;;;5092921;28;20086;-73
2021/08/20 01:06:11;;;;;;;5.63;2.75;;;23.70;49.30;;;;;;5092874;28;20036;-72
2021/08/20 01:08:38;;;;;;;4.13;2.88;;;23.70;49.80;;;;;;5092948;28;20165;-73
2021/08/20 01:11:06;;;;;;;3.67;2.45;;;23.70;49.60;;;;;;5093075;28;20028;-73
2021/08/20 01:13:35;;;;;;;5.90;3.00;;;23.60;49.80;;;;;;5092504;28;20115;-73
2021/08/20 01:16:02;;;;;;;3.80;2.63;;;23.50;49.60;;;;;;5092924;28;20075;-73
2021/08/20 01:18:36;;;;;;;4.63;2.88;;;23.50;50.80;;;;;;5092810;28;20515;-73
2021/08/20 01:21:04;;;;;;;3.38;2.63;;;;;;;;;;5100879;28;20529;-74
2021/08/20 01:23:30;;;;;;;5.35;2.80;;;23.30;51.10;;;;;;5113195;28;20472;-73
2021/08/20 01:25:57;;;;;;;4.80;3.30;;;23.30;51.70;;;;;;5112963;28;20039;-73
2021/08/20 01:28:24;;;;;;;5.65;2.70;;;23.30;52.50;;;;;;5113021;28;20546;-68
2021/08/20 01:31:06;;;;;;;3.88;2.90;;;23.20;51.80;;;;;;5113285;28;20032;-73
2021/08/20 01:33:31;;;;;;;5.53;2.70;;;23.20;52.20;;;;;;5095215;28;20032;-73
2021/08/20 01:35:58;;;;;;;5.63;2.78;;;23.10;52.90;;;;;;5112996;28;20084;-73
2021/08/20 01:38:25;;;;;;;5.82;2.55;;;23.10;53.20;;;;;;5115298;28;20035;-74
2021/08/20 01:40:51;;;;;;;7.07;3.28;;;23.00;53.60;;;;;;5116393;28;20047;-69
2021/08/20 01:43:17;;;;;;;3.35;2.47;;;23.00;52.80;;;;;;5116540;28;20051;-67
2021/08/20 01:45:44;;;;;;;5.00;2.40;;;23.00;52.90;;;;;;5116502;28;20063;-74
2021/08/20 01:48:10;;;;;;;3.55;2.60;;;23.00;52.80;;;;;;5116531;28;20035;-72
2021/08/20 01:50:37;;;;;;;5.45;2.60;;;23.00;52.70;;;;;;5116157;28;20070;-73
2021/08/20 01:53:06;;;;;;;5.15;3.25;;;23.00;52.10;;;;;;5116408;28;20031;-74
2021/08/20 01:55:31;;;;;;;5.20;2.92;;;23.00;52.00;;;;;;5116097;28;20044;-69
2021/08/20 01:57:57;;;;;;;4.13;2.70;;;23.00;51.50;;;;;;5116404;28;20027;-73
2021/08/20 02:00:23;;;;;;;3.40;2.60;;;23.00;51.20;;;;;;5115818;28;20043;-73
2021/08/20 02:02:48;;;;;;;4.93;2.50;;;23.00;51.30;;;;;;5116476;28;20040;-73
2021/08/20 02:05:14;;;;;;;5.93;2.85;;;23.00;51.60;;;;;;5116551;28;20567;-73
2021/08/20 02:07:40;;;;;;;3.35;2.78;;;22.90;52.10;;;;;;5116565;28;20038;-72
2021/08/20 02:10:08;;;;;;;3.70;2.75;;;22.90;52.10;;;;;;5116539;28;20396;-73
2021/08/20 02:12:34;;;;;;;4.10;2.50;;;22.90;52.40;;;;;;5116132;28;20112;-73
2021/08/20 02:15:00;;;;;;;3.25;2.40;;;22.90;52.30;;;;;;5116334;28;20077;-74
2021/08/20 02:17:26;;;;;;;3.40;2.50;;;22.80;53.10;;;;;;5116442;28;20031;-73
2021/08/20 02:19:52;;;;;;;5.78;2.55;;;22.90;53.60;;;;;;5116024;28;20071;-73
2021/08/20 02:22:18;;;;;;;3.22;2.40;;;22.80;53.70;;;;;;5115804;28;20078;-74
2021/08/20 02:24:43;;;;;;;7.15;3.88;;;22.80;53.80;;;;;;5116193;28;20035;-74
2021/08/20 02:27:09;;;;;;;4.40;2.63;;;22.80;53.30;;;;;;5115817;28;20478;-73
2021/08/20 02:29:35;;;;;;;3.85;2.80;;;22.70;53.60;;;;;;5115432;28;20495;-73
2021/08/20 02:32:00;;;;;;;4.57;2.95;;;22.70;53.60;;;;;;5115798;28;20094;-74
2021/08/20 02:34:26;;;;;;;8.15;2.75;;;22.70;52.70;;;;;;5115741;28;20152;-73
2021/08/20 02:36:51;;;;;;;4.65;3.15;;;22.70;53.10;;;;;;5115871;28;20099;-73
2021/08/20 02:39:17;;;;;;;3.75;2.50;;;22.60;52.90;;;;;;5115608;28;20047;-73
2021/08/20 02:41:43;;;;;;;3.40;2.40;;;22.60;53.20;;;;;;5115626;28;20035;-73
2021/08/20 02:44:08;;;;;;;3.20;2.70;;;22.60;52.40;;;;;;5115634;28;20393;-74
2021/08/20 02:46:35;;;;;;;4.93;2.85;;;22.60;52.90;;;;;;5115512;28;20081;-73
2021/08/20 02:49:01;;;;;;;5.20;2.78;;;22.50;51.50;;;;;;5114606;28;20050;-73
2021/08/20 02:51:27;;;;;;;3.72;2.70;;;22.60;52.80;;;;;;5115265;28;20384;-70
2021/08/20 02:53:52;;;;;;;3.95;2.60;;;22.60;53.60;;;;;;5115033;28;20505;-72
2021/08/20 02:56:19;;;;;;;6.38;2.65;;;22.60;53.50;;;;;;5115063;28;20035;-73
2021/08/20 02:58:45;;;;;;;4.35;2.85;;;22.60;53.30;;;;;;5115127;28;20040;-71
2021/08/20 03:01:10;;;;;;;5.07;2.75;;;22.60;52.90;;;;;;5115746;28;20038;-74
2021/08/20 03:03:36;;;;;;;5.53;3.00;;;22.60;53.80;;;;;;5115294;28;20111;-73
2021/08/20 03:06:02;;;;;;;5.90;3.10;;;22.60;53.70;;;;;;5115115;28;20063;-74
2021/08/20 03:08:27;;;;;;;4.72;3.10;;;22.50;54.00;;;;;;5115554;28;20024;-71
2021/08/20 03:10:53;;;;;;;6.25;2.85;;;22.50;53.80;;;;;;5115172;28;20450;-73
2021/08/20 03:13:19;;;;;;;4.38;2.70;;;22.50;53.20;;;;;;5115473;28;20059;-74
2021/08/20 03:15:45;;;;;;;4.03;3.03;;;22.50;53.10;;;;;;5115019;28;20039;-69
2021/08/20 03:18:10;;;;;;;6.07;2.90;;;22.50;52.70;;;;;;5114981;28;20028;-71
2021/08/20 03:20:36;;;;;;;3.53;2.80;;;22.50;52.70;;;;;;5114942;28;20047;-72
2021/08/20 03:23:01;;;;;;;3.67;2.50;;;22.60;52.50;;;;;;5114708;28;20031;-73
2021/08/20 03:25:27;;;;;;;4.50;2.80;;;22.50;52.40;;;;;;5115052;28;20545;-71
2021/08/20 03:27:53;;;;;;;3.67;2.67;;;22.60;52.30;;;;;;5114900;28;20027;-73
2021/08/20 03:30:18;;;;;;;4.25;2.72;;;22.60;53.30;;;;;;5114836;28;20027;-74
2021/08/20 03:32:44;;;;;;;5.10;3.08;;;22.60;52.90;;;;;;5114900;28;20058;-72
2021/08/20 03:35:10;;;;;;;3.78;2.70;;;22.60;52.90;;;;;;5114820;28;20028;-73
2021/08/20 03:37:42;;;;;;;4.15;2.85;;;22.50;53.00;;;;;;5114593;28;20025;-73
2021/08/20 03:40:08;;;;;;;6.75;2.90;;;22.60;53.30;;;;;;5114441;28;20039;-72
2021/08/20 03:42:34;;;;;;;4.35;2.88;;;22.50;52.80;;;;;;5114673;28;20052;-72
2021/08/20 03:45:00;;;;;;;3.78;2.70;;;22.60;52.30;;;;;;5114677;28;20557;-70
2021/08/20 03:47:25;;;;;;;5.30;2.88;;;22.60;52.40;;;;;;5114713;28;20376;-73
2021/08/20 03:49:51;;;;;;;4.55;2.72;;;22.60;52.60;;;;;;5114247;28;20046;-73
2021/08/20 03:52:17;;;;;;;4.82;3.15;;;22.60;53.60;;;;;;5114195;28;20035;-72
2021/08/20 03:54:42;;;;;;;4.03;2.80;;;22.50;52.40;;;;;;5114366;28;20398;-73
2021/08/20 03:57:08;;;;;;;4.28;2.53;;;22.60;53.50;;;;;;5114491;28;20114;-71
2021/08/20 03:59:34;;;;;;;4.90;2.85;;;22.50;53.60;;;;;;5114263;28;20434;-73
2021/08/20 04:02:05;;;;;;;5.65;2.80;;;22.50;53.80;;;;;;5114006;28;20487;-73
2021/08/20 04:04:32;;;;;;;7.35;2.90;;;22.50;53.10;;;;;;5114036;28;20566;-73
2021/08/20 04:06:58;;;;;;;7.22;2.78;;;22.50;53.60;;;;;;5114040;28;20028;-72
2021/08/20 04:09:23;;;;;;;4.20;3.10;;;22.50;53.70;;;;;;5114389;28;20087;-72
2021/08/20 04:11:49;;;;;;;6.57;2.95;;;22.50;54.70;;;;;;5114333;28;20027;-73
2021/08/20 04:14:15;;;;;;;5.47;2.60;;;22.60;60.30;;;;;;5114164;28;20032;-73
2021/08/20 04:16:42;;;;;;;5.05;2.83;;;22.50;62.40;;;;;;5113869;28;20034;-73
2021/08/20 04:19:08;;;;;;;6.88;2.95;;;23.40;53.10;;;;;;5113880;28;20572;-72
2021/08/20 04:21:34;;;;;;;3.65;2.78;;;22.50;53.10;;;;;;5113685;28;20118;-72
2021/08/20 04:24:00;;;;;;;3.45;2.53;;;22.40;53.00;;;;;;5114005;28;20078;-73
2021/08/20 04:26:26;;;;;;;4.45;2.70;;;22.40;53.40;;;;;;5113682;28;20169;-73
2021/08/20 04:28:51;;;;;;;6.82;2.53;;;22.40;53.70;;;;;;5113952;28;20046;-72
2021/08/20 04:31:18;;;;;;;4.90;3.10;;;22.30;53.40;;;;;;5113937;28;20141;-73
2021/08/20 04:33:44;;;;;;;7.35;2.80;;;22.30;53.40;;;;;;5113958;28;20036;-73
2021/08/20 04:36:11;;;;;;;3.83;2.70;;;22.30;53.50;;;;;;5113528;28;20035;-73
2021/08/20 04:38:38;;;;;;;4.53;2.70;;;22.30;53.90;;;;;;5113703;28;20389;-73
2021/08/20 04:41:05;;;;;;;5.32;3.15;;;22.30;55.00;;;;;;5113601;28;20081;-72
2021/08/20 04:43:30;;;;;;;6.03;3.15;;;22.30;55.00;;;;;;5113465;28;20070;-73
2021/08/20 04:45:56;;;;;;;4.85;3.13;;;22.30;54.60;;;;;;5113603;28;20123;-73
2021/08/20 04:48:23;;;;;;;4.85;2.65;;;22.20;54.50;;;;;;5113304;28;20048;-72
2021/08/20 04:50:51;;;;;;;5.55;3.20;;;22.20;54.90;;;;;;5113796;28;20034;-73
2021/08/20 04:53:19;;;;;;;6.65;2.63;;;22.20;55.00;;;;;;5113751;28;20090;-73
2021/08/20 04:55:45;;;;;;;4.68;2.58;;;22.20;53.70;;;;;;5113544;28;20081;-73
2021/08/20 04:58:11;;;;;;;6.75;3.08;;;22.20;54.60;;;;;;5113772;28;20036;-73
2021/08/20 05:00:36;;;;;;;8.32;3.17;;;22.20;55.00;;;;;;5113544;28;20101;-74
2021/08/20 05:03:04;;;;;;;6.65;2.97;;;22.20;54.80;;;;;;5113391;28;20122;-73
2021/08/20 05:05:29;;;;;;;6.53;2.70;;;22.20;54.90;;;;;;5113328;28;20066;-73
2021/08/20 05:07:55;;;;;;;9.50;2.67;;;22.30;55.60;;;;;;5113248;28;20059;-72
2021/08/20 05:10:21;;;;;;;8.60;3.33;;;22.20;55.50;;;;;;5113413;28;20068;-72
2021/08/20 05:12:47;;;;;;;9.00;2.88;;;22.30;55.80;;;;;;5114893;28;20481;-74
2021/08/20 05:15:12;;;;;;;8.48;3.03;;;22.30;55.40;;;;;;5116857;28;20039;-73
2021/08/20 05:17:38;;;;;;;6.05;3.00;;;22.30;54.50;;;;;;5117662;28;20028;-71
2021/08/20 05:20:05;;;;;;;8.15;2.67;;;22.30;55.20;;;;;;5117561;28;20050;-72
2021/08/20 05:22:57;;;;;;;8.93;3.03;;;22.40;55.20;;;;;;5117196;28;20052;-72
2021/08/20 05:25:25;;;;;;;6.47;2.83;;;22.30;54.80;;;;;;5112640;28;20039;-72
2021/08/20 05:27:51;;;;;;;4.57;2.90;;;22.40;55.80;;;;;;5116876;28;20028;-71
2021/08/20 05:30:18;;;;;;;6.65;3.15;;;22.40;55.90;;;;;;5117318;28;20032;-70
2021/08/20 05:32:44;;;;;;;7.35;3.08;;;22.40;55.50;;;;;;5117074;28;20038;-71
2021/08/20 05:35:12;;;;;;;7.78;3.20;;;22.40;55.10;;;;;;5117110;28;20115;-72
2021/08/20 05:37:38;;;;;;;8.45;3.38;;;22.50;55.20;;;;;;5116948;28;20028;-72
2021/08/20 05:40:05;;;;;;;7.35;2.95;;;22.50;54.60;;;;;;5117089;28;20093;-71
2021/08/20 05:42:31;;;;;;;5.60;2.90;;;22.60;54.50;;;;;;5116968;28;20392;-71
2021/08/20 05:44:56;;;;;;;10.27;3.30;;;22.60;54.30;;;;;;5116756;28;20107;-72
2021/08/20 05:47:23;;;;;;;7.63;2.90;;;22.70;54.80;;;;;;5116834;28;20098;-71
2021/08/20 05:49:49;;;;;;;4.65;2.80;;;22.80;54.70;;;;;;5116641;28;20035;-70
2021/08/20 05:52:16;;;;;;;5.05;3.55;;;22.90;54.30;;;;;;5116868;28;20537;-71
2021/08/20 05:54:41;;;;;;;3.90;2.80;;;22.90;54.50;;;;;;5116586;28;20051;-71
2021/08/20 05:57:07;;;;;;;8.15;3.25;;;23.00;53.60;;;;;;5116498;28;20028;-71
2021/08/20 05:59:33;;;;;;;12.82;3.45;;;23.10;53.30;;;;;;5116269;28;20551;-70
2021/08/20 06:01:58;;;;;;;11.68;3.08;;;23.10;53.10;;;;;;5116754;28;20507;-70
2021/08/20 06:04:24;;;;;;;7.53;2.83;;;23.20;53.40;;;;;;5116264;28;20475;-70
2021/08/20 06:06:49;;;;;;;7.80;2.92;;;23.20;54.30;;;;;;5116268;28;20464;-71
2021/08/20 06:09:16;;;;;;;12.00;3.15;;;23.30;53.70;;;;;;5116599;28;20042;-70
2021/08/20 06:11:42;;;;;;;10.73;3.05;;;23.30;52.70;;;;;;5116380;28;20036;-70
2021/08/20 06:14:08;;;;;;;5.72;2.75;;;23.30;52.40;;;;;;5116436;28;20036;-70
2021/08/20 06:16:34;;;;;;;11.32;3.53;;;23.40;52.60;;;;;;5115889;28;20102;-71
2021/08/20 06:19:00;;;;;;;14.48;3.30;;;23.40;52.10;;;;;;5116375;28;20032;-72
2021/08/20 06:21:26;;;;;;;12.80;2.80;;;23.40;52.30;;;;;;5115999;28;20052;-71
2021/08/20 06:23:52;;;;;;;13.55;3.25;;;23.50;52.30;;;;;;5115019;28;20028;-70
2021/08/20 06:26:17;;;;;;;8.00;3.15;;;23.50;52.00;;;;;;5116008;28;20040;-71
2021/08/20 06:28:43;;;;;;;11.50;2.72;;;23.50;52.50;;;;;;5115916;28;20070;-71
2021/08/20 06:31:08;;;;;;;8.00;2.90;;;23.60;52.30;;;;;;5116097;28;20115;-71
2021/08/20 06:33:36;;;;;;;6.80;3.00;;;23.60;51.90;;;;;;5115970;28;20031;-71
2021/08/20 06:36:02;;;;;;;10.60;2.80;;;23.70;51.40;;;;;;5115859;28;20042;-71
2021/08/20 06:38:28;;;;;;;8.45;2.70;;;23.80;51.10;;;;;;5115631;28;20031;-71
2021/08/20 06:40:54;;;;;;;5.72;2.50;;;23.80;51.00;;;;;;5115279;28;20662;-69
2021/08/20 06:43:20;;;;;;;7.53;2.70;;;23.80;50.80;;;;;;5115677;28;20036;-71
2021/08/20 06:45:46;;;;;;;5.63;2.30;;;23.90;50.50;;;;;;5115762;28;20468;-72
2021/08/20 06:48:15;;;;;;;4.68;2.58;;;23.90;50.50;;;;;;5115786;28;20032;-72
2021/08/20 06:50:42;;;;;;;5.20;2.90;;;23.90;50.60;;;;;;5115483;28;20067;-71
2021/08/20 06:53:07;;;;;;;8.70;3.20;;;24.00;50.50;;;;;;5115672;28;20032;-71
2021/08/20 06:55:33;;;;;;;3.75;2.63;;;24.10;50.80;;;;;;5115469;28;20053;-72
2021/08/20 06:57:59;;;;;;;6.72;2.95;;;24.10;50.70;;;;;;5115176;28;20032;-72
2021/08/20 07:00:25;;;;;;;5.07;2.90;;;24.10;50.50;;;;;;5115450;28;20097;-72
2021/08/20 07:02:50;;;;;;;5.53;3.03;;;24.20;50.50;;;;;;5115272;28;20077;-72
2021/08/20 07:05:17;;;;;;;4.63;2.88;;;24.20;50.40;;;;;;5115592;28;20036;-73
2021/08/20 07:07:43;;;;;;;9.35;3.08;;;24.30;50.30;;;;;;5115516;28;20077;-72
2021/08/20 07:10:10;;;;;;;6.20;2.55;;;24.30;50.20;;;;;;5115071;28;20035;-72
2021/08/20 07:12:37;;;;;;;8.43;3.08;;;24.40;49.80;;;;;;5115415;28;20543;-72
2021/08/20 07:15:04;;;;;;;5.65;2.65;;;24.40;49.30;;;;;;5115153;28;20107;-72
2021/08/20 07:17:30;;;;;;;8.57;2.67;;;24.50;49.40;;;;;;5115184;28;20028;-72
2021/08/20 07:19:57;;;;;;;8.02;2.72;;;24.50;48.80;;;;;;5114986;28;20097;-72
2021/08/20 07:22:22;;;;;;;3.78;2.70;;;24.60;48.40;;;;;;5114734;28;20090;-71
2021/08/20 07:24:48;;;;;;;4.05;2.58;;;24.60;48.80;;;;;;5114971;28;20111;-72
2021/08/20 07:27:14;;;;;;;10.32;2.83;;;24.60;48.70;;;;;;5115163;28;20031;-73
2021/08/20 07:29:39;;;;;;;3.75;2.53;;;24.70;49.00;;;;;;5114897;28;20063;-70
2021/08/20 07:32:06;;;;;;;3.92;2.70;;;24.80;49.30;;;;;;5114719;28;20050;-72
2021/08/20 07:34:31;;;;;;;6.60;2.60;;;24.80;47.80;;;;;;5114796;28;20039;-73
2021/08/20 07:36:57;;;;;;;6.72;2.40;;;24.80;47.50;;;;;;5114644;28;20057;-72
2021/08/20 07:39:26;;;;;;;4.13;2.40;;;24.80;47.80;;;;;;5114654;28;20479;-72
2021/08/20 07:41:52;;;;;;;4.88;2.38;;;24.90;48.10;;;;;;5114405;28;20044;-73
2021/08/20 07:44:18;;;;;;;6.35;2.80;;;25.00;48.20;;;;;;5114642;28;20491;-73
2021/08/20 07:46:44;;;;;;;3.95;2.72;;;25.00;48.40;;;;;;5114824;28;20044;-73
2021/08/20 07:49:10;;;;;;;3.45;2.60;;;25.10;47.60;;;;;;5114726;28;20020;-73
2021/08/20 07:51:36;;;;;;;3.47;2.60;;;25.10;46.60;;;;;;5114568;28;20502;-72
2021/08/20 07:54:02;;;;;;;6.55;2.85;;;25.10;46.50;;;;;;5114431;28;20024;-73
2021/08/20 07:56:28;;;;;;;3.83;2.45;;;25.20;46.60;;;;;;5114522;28;20472;-73
2021/08/20 07:58:53;;;;;;;3.92;2.30;;;25.20;46.50;;;;;;5114461;28;20074;-72
2021/08/20 08:01:19;;;;;;;4.78;2.60;;;25.30;46.60;;;;;;5114310;28;20032;-74
2021/08/20 08:03:44;;;;;;;6.00;2.70;;;25.30;46.40;;;;;;5114182;28;20034;-72
2021/08/20 08:06:12;;;;;;;3.97;2.90;;;25.40;45.80;;;;;;5114393;28;20081;-72
2021/08/20 08:08:41;;;;;;;8.48;2.70;;;25.40;45.80;;;;;;5114208;28;20468;-73
2021/08/20 08:11:08;;;;;;;4.72;2.60;;;25.50;45.80;;;;;;5114386;28;20492;-73
2021/08/20 08:13:33;;;;;;;4.93;2.50;;;25.50;45.90;;;;;;5114111;28;20411;-73
2021/08/20 08:15:59;;;;;;;3.55;2.55;;;25.70;46.00;;;;;;5114174;28;20024;-73
2021/08/20 08:18:25;;;;;;;7.65;2.97;;;25.70;45.10;;;;;;5114171;28;20046;-73
2021/08/20 08:20:51;;;;;;;6.13;2.72;;;25.80;44.60;;;;;;5113802;28;20052;-74
2021/08/20 08:23:16;;;;;;;6.30;2.70;;;25.90;44.50;;;;;;5114174;28;20023;-75
2021/08/20 08:25:42;;;;;;;4.22;2.72;;;25.90;44.60;;;;;;5113908;28;20028;-74
2021/08/20 08:28:08;;;;;;;3.85;2.65;;;26.00;44.40;;;;;;5113918;28;20055;-73
2021/08/20 08:30:37;;;;;;;3.15;2.40;;;26.10;44.40;;;;;;5113986;28;20059;-73
2021/08/20 08:33:04;;;;;;;3.55;2.35;;;26.10;44.90;;;;;;5113995;28;20028;-73
2021/08/20 08:35:29;;;;;;;3.45;2.53;;;26.20;44.70;;;;;;5113923;28;20035;-69
2021/08/20 08:38:08;;;;;;;3.97;2.35;;;26.30;44.60;;;;;;5113851;28;20085;-73
2021/08/20 08:40:36;;;;;;;4.50;2.35;;;26.30;43.90;;;;;;5113680;28;20085;-73
2021/08/20 08:43:06;;;;;;;3.83;2.30;;;26.40;43.40;;;;;;5095557;28;20369;-73
2021/08/20 08:45:33;;;;;;;5.60;2.70;;;26.50;43.80;;;;;;5113840;28;20032;-74
2021/08/20 08:48:03;;;;;;;3.17;2.40;;;26.60;43.50;;;;;;5113039;28;20522;-74
2021/08/20 08:50:29;;;;;;;4.28;2.70;;;26.60;42.50;;;;;;5113508;28;20039;-73
2021/08/20 08:52:55;;;;;;;3.33;2.35;;;26.60;42.40;;;;;;5113853;28;20028;-74
2021/08/20 08:55:20;;;;;;;6.00;2.13;;;26.70;42.90;;;;;;5113599;28;20603;-71
2021/08/20 08:57:46;;;;;;;2.80;2.50;;;26.80;42.60;;;;;;5113557;28;20031;-73
2021/08/20 09:00:14;;;;;;;4.70;2.30;;;26.80;41.90;;;;;;5113855;28;20127;-72
2021/08/20 09:02:40;;;;;;;3.65;2.70;;;26.80;42.40;;;;;;5113674;28;20081;-75
2021/08/20 09:05:11;;;;;;;4.65;2.10;;;26.90;42.60;;;;;;5113493;28;20472;-73
2021/08/20 09:07:38;;;;;;;2.92;2.25;;;27.00;41.30;;;;;;5114128;28;20028;-73
2021/08/20 09:10:17;;;;;;;2.45;2.10;;;27.00;41.40;;;;;;5113959;28;20036;-73
2021/08/20 09:12:53;;;;;;;4.20;2.25;;;27.20;40.00;;;;;;5113643;28;20032;-73
2021/08/20 09:15:21;;;;;;;3.83;2.30;;;27.20;38.50;;;;;;5113464;28;20035;-73
2021/08/20 09:17:52;;;;;;;4.13;1.98;;;27.20;38.50;;;;;;5113589;28;20365;-74
2021/08/20 09:20:20;;;;;;;3.65;2.00;;;27.30;38.30;;;;;;5113284;28;20094;-73
2021/08/20 09:22:47;;;;;;;3.53;2.28;;;27.30;39.30;;;;;;5113265;28;20472;-69
2021/08/20 09:25:48;;;;;;;2.47;2.20;;;27.40;39.00;;;;;;5113422;28;20031;-73
2021/08/20 09:28:17;;;;;;;3.03;2.20;;;27.50;39.80;;;;;;5011066;28;20038;-72
2021/08/20 09:30:56;;;;;;;4.35;2.13;;;27.60;39.00;;;;;;5094767;28;20079;-72
2021/08/20 09:33:24;;;;;;;2.75;2.20;;;27.60;38.70;;;;;;5113482;28;20100;-73
2021/08/20 09:36:06;;;;;;;2.80;2.03;;;27.70;38.30;;;;;;5113250;28;20039;-71
2021/08/20 09:38:43;;;;;;;4.47;1.90;;;27.70;36.90;;;;;;5113331;28;20031;-74
2021/08/20 09:41:18;;;;;;;3.88;2.17;;;27.90;37.20;;;;;;5113343;28;20048;-72
2021/08/20 09:43:47;;;;;;;4.00;2.20;;;27.90;36.00;;;;;;5112842;28;20047;-73
2021/08/20 09:46:19;;;;;;;3.55;2.28;;;28.00;36.50;;;;;;5112897;28;20084;-73
2021/08/20 09:48:54;;;;;;;2.47;2.00;;;28.00;36.70;;;;;;5112909;28;20058;-72
2021/08/20 09:51:41;;;;;;;5.40;2.22;;;28.10;35.90;;;;;;5113193;28;20028;-70
2021/08/20 09:54:08;;;;;;;4.75;2.53;;;28.10;34.60;;;;;;5113196;28;20387;-72
2021/08/20 09:56:34;;;;;;;7.13;2.00;;;28.20;35.70;;;;;;5112860;28;20031;-73
2021/08/20 09:59:03;;;;;;;2.28;1.85;;;28.20;36.00;;;;;;5114207;28;20036;-72
2021/08/20 10:01:30;;;;;;;6.60;2.20;;;28.30;36.80;;;;;;5116770;28;20074;-72
2021/08/20 10:03:58;;;;;;;6.63;2.45;;;28.40;36.40;;;;;;5116618;28;20039;-73
2021/08/20 10:06:45;;;;;;;4.68;2.00;;;28.50;36.20;;;;;;5116494;28;20503;-73
2021/08/20 10:09:15;;;;;;;2.55;2.10;;;28.50;36.00;;;;;;5116026;28;20059;-73
2021/08/20 10:11:48;;;;;;;3.63;2.47;;;28.60;35.60;;;;;;5116509;28;20039;-75
2021/08/20 10:14:15;;;;;;;2.97;2.40;;;28.70;35.60;;;;;;5116382;28;20170;-74
2021/08/20 10:16:41;;;;;;;5.00;2.10;;;28.70;35.50;;;;;;5116407;28;20028;-73
2021/08/20 10:19:09;;;;;;;2.25;2.05;;;28.80;35.60;;;;;;5116268;28;20039;-73
2021/08/20 10:21:38;;;;;;;3.47;2.35;;;28.80;35.60;;;;;;5115831;28;20044;-75
2021/08/20 10:24:05;;;;;;;2.80;2.13;;;28.90;35.90;;;;;;5116238;28;20483;-73
2021/08/20 10:26:32;;;;;;;4.25;2.22;;;28.90;35.10;;;;;;5116132;28;20059;-74
2021/08/20 10:29:01;;;;;;;4.55;2.05;;;29.00;35.50;;;;;;5116216;28;20384;-74
2021/08/20 10:31:27;;;;;;;2.80;2.10;;;29.10;35.70;;;;;;5115867;28;20059;-73
2021/08/20 10:33:53;;;;;;;5.75;2.00;;;29.10;35.20;;;;;;5115771;28;20046;-73
2021/08/20 10:36:38;;;;;;;3.95;2.17;;;29.10;35.90;;;;;;5116007;28;20111;-72
2021/08/20 10:39:05;;;;;;;6.75;2.00;;;29.10;35.00;;;;;;5115978;28;20093;-73
2021/08/20 10:41:31;;;;;;;5.80;2.42;;;29.10;34.10;;;;;;5115809;28;20043;-74
2021/08/20 10:44:11;;;;;;;2.70;2.10;;;29.10;34.90;;;;;;5115812;28;20038;-74
2021/08/20 10:46:38;;;;;;;8.07;1.98;;;29.20;35.60;;;;;;5116053;28;20059;-74
2021/08/20 10:49:21;;;;;;;2.85;2.20;;;29.20;34.30;;;;;;5115684;28;20115;-74
2021/08/20 10:51:50;;;;;;;5.78;2.00;;;29.20;35.00;;;;;;5115421;28;20035;-72
2021/08/20 10:54:16;;;;;;;3.90;2.38;;;29.30;34.90;;;;;;5115192;28;20119;-74
2021/08/20 10:56:42;;;;;;;2.58;1.92;;;29.30;35.00;;;;;;5115613;28;20383;-74
2021/08/20 10:59:07;;;;;;;3.65;2.33;;;29.30;34.50;;;;;;5114791;28;20031;-73
2021/08/20 11:01:33;;;;;;;4.50;2.40;;;29.40;34.60;;;;;;5115627;28;20067;-72
2021/08/20 11:03:59;;;;;;;2.95;2.10;;;29.40;34.90;;;;;;5115300;28;20440;-73
2021/08/20 11:06:47;;;;;;;5.15;2.78;;;29.50;34.60;;;;;;5115466;28;20032;-73
2021/08/20 11:09:26;;;;;;;4.47;2.40;;;29.40;34.10;;;;;;5115780;28;20028;-73
2021/08/20 11:11:52;;;;;;;3.30;2.17;;;29.50;34.90;;;;;;5114770;28;20067;-73
2021/08/20 11:14:33;;;;;;;2.63;2.10;;;29.50;35.20;;;;;;5115220;28;20386;-73
2021/08/20 11:16:59;;;;;;;3.50;2.53;;;29.50;35.20;;;;;;5115338;28;20110;-73
2021/08/20 11:19:44;;;;;;;5.05;2.75;;;29.60;34.60;;;;;;5115055;28;20040;-73
2021/08/20 11:22:22;;;;;;;2.92;2.10;;;29.70;35.30;;;;;;5115030;28;20073;-74
2021/08/20 11:25:15;;;;;;;2.42;2.13;;;29.70;34.80;;;;;;5114708;28;20032;-73
2021/08/20 11:27:54;;;;;;;5.05;2.90;;;29.80;35.20;;;;;;5115261;28;20553;-73
2021/08/20 11:30:20;;;;;;;4.10;2.28;;;29.80;34.30;;;;;;5114921;28;20081;-72
2021/08/20 11:32:45;;;;;;;3.05;2.22;;;29.80;34.00;;;;;;5115076;28;20044;-73
2021/08/20 11:35:11;;;;;;;2.78;2.10;;;29.90;34.10;;;;;;5114843;28;20052;-72
2021/08/20 11:37:51;;;;;;;4.70;2.20;;;29.90;34.20;;;;;;5114736;28;20047;-73
2021/08/20 11:40:17;;;;;;;3.60;2.15;;;29.90;34.50;;;;;;5114802;28;20085;-72
2021/08/20 11:43:02;;;;;;;3.33;2.25;;;30.00;34.70;;;;;;5096421;28;20031;-71
2021/08/20 11:45:28;;;;;;;3.03;2.38;;;30.00;34.60;;;;;;5114566;28;20040;-74
2021/08/20 11:47:58;;;;;;;3.33;2.40;;;30.10;34.80;;;;;;5114861;28;20039;-73
2021/08/20 11:50:25;;;;;;;2.65;2.20;;;30.00;34.30;;;;;;5114598;28;20471;-73
2021/08/20 16:52:31;;;;;;;4.40;2.60;;;30.00;38.50;;;;;;5091448;28;20097;-74
2021/08/20 16:54:59;;;;;;;5.13;2.47;;;29.90;38.40;;;;;;5092989;28;20035;-74
2021/08/20 16:57:24;;;;;;;6.40;2.65;;;29.90;37.80;;;;;;5093072;28;20039;-75
2021/08/20 16:59:50;;;;;;;6.53;2.40;;;29.90;38.20;;;;;;5092819;28;20043;-74
2021/08/20 17:02:16;;;;;;;5.10;3.05;;;29.80;38.40;;;;;;5093137;28;20043;-73
2021/08/20 17:04:42;;;;;;;4.13;3.03;;;29.80;39.00;;;;;;5093049;28;20085;-74
2021/08/20 17:07:07;;;;;;;3.60;2.83;;;29.80;39.10;;;;;;5093036;28;20129;-72
2021/08/20 17:09:34;;;;;;;4.90;3.30;;;29.70;39.60;;;;;;5096211;28;20036;-74
2021/08/20 17:11:59;;;;;;;6.28;3.80;;;29.70;39.10;;;;;;5097166;28;20039;-73
2021/08/20 17:14:25;;;;;;;5.75;3.30;;;29.70;40.20;;;;;;5097417;28;20028;-73
2021/08/20 17:16:51;;;;;;;6.53;2.90;;;29.60;40.30;;;;;;5097340;28;20043;-73
2021/08/20 17:19:17;;;;;;;3.60;3.10;;;29.50;40.50;;;;;;5096943;28;20468;-73
2021/08/20 17:21:44;;;;;;;6.05;3.17;;;29.50;40.60;;;;;;5097040;28;20038;-72
2021/08/20 17:24:09;;;;;;;7.80;3.20;;;29.40;40.70;;;;;;5097206;28;20146;-72
2021/08/20 17:26:35;;;;;;;3.50;2.72;;;29.40;40.40;;;;;;5097070;28;20456;-73
2021/08/20 17:29:01;;;;;;;5.15;3.85;;;29.30;40.90;;;;;;5096972;28;20103;-73
2021/08/20 17:31:27;;;;;;;10.43;3.78;;;29.30;41.10;;;;;;5096927;28;20032;-73
2021/08/20 17:33:54;;;;;;;6.40;4.13;;;29.20;41.40;;;;;;5096917;28;20024;-72
2021/08/20 17:36:22;;;;;;;7.55;4.75;;;29.20;42.20;;;;;;5097033;28;20059;-73
2021/08/20 17:38:51;;;;;;;10.77;7.90;;;29.10;42.10;;;;;;5096732;28;20086;-73
2021/08/20 17:41:18;;;;;;;12.27;8.48;;;29.00;42.00;;;;;;5096751;28;20044;-71
2021/08/20 17:43:44;;;;;;;12.00;8.35;;;28.90;42.40;;;;;;5095966;28;20469;-72
2021/08/20 17:46:10;;;;;;;8.30;7.30;;;28.90;42.60;;;;;;5096544;28;20036;-72